Time;durP1;ratioP1;P1;durP2;ratioP2;P2;SDS_P1;SDS_P2;PMS_P1;PMS_P2;Temp;Humidity;BMP_temperature;BMP_pressure;BME280_temperature;BME280_humidity;BME280_pressure;Samples;Min_cycle;Max_cycle;Signal;HPM_P1;HPM_P2
2020/12/04 00:00:53;;;;;;;1.63;1.53;;;;;5.60;97509.00;;;;10039842;29;20217;-92
2020/12/04 00:06:03;;;;;;;1.67;1.47;;;;;5.60;97501.00;;;;10063909;29;20185;-91
2020/12/04 00:11:11;;;;;;;2.10;1.90;;;;;5.60;97488.00;;;;10079991;29;20206;-90
2020/12/04 00:16:20;;;;;;;1.43;1.23;;;;;5.60;97476.00;;;;10043571;29;20278;-91
2020/12/04 00:21:25;;;;;;;2.70;1.73;;;;;5.60;97462.00;;;;10006430;29;20989;-93
2020/12/04 00:26:27;;;;;;;1.57;1.47;;;;;5.60;97453.00;;;;10003655;29;20205;-91
2020/12/04 00:31:31;;;;;;;1.60;1.50;;;;;5.60;97431.00;;;;10050764;29;20214;-92
2020/12/04 00:36:48;;;;;;;5.63;1.60;;;;;5.60;97432.00;;;;9976751;29;20226;-93
2020/12/04 00:41:52;;;;;;;2.03;1.63;;;;;5.60;97413.00;;;;9974583;29;20225;-93
2020/12/04 00:47:00;;;;;;;2.37;1.53;;;;;5.70;97410.00;;;;10012299;29;20209;-90
2020/12/04 00:52:34;;;;;;;1.40;1.30;;;;;5.70;97387.00;;;;9979993;29;20272;-92
2020/12/04 00:57:39;;;;;;;1.83;1.50;;;;;5.70;97372.00;;;;10018853;29;20279;-92
2020/12/04 01:02:41;;;;;;;1.77;1.20;;;;;5.70;97344.00;;;;9990316;29;20217;-91
2020/12/04 01:07:46;;;;;;;1.40;1.20;;;;;5.80;97334.00;;;;9989089;29;20210;-91
2020/12/04 01:12:53;;;;;;;1.50;1.33;;;;;5.80;97325.00;;;;9968450;29;20251;-92
2020/12/04 01:17:56;;;;;;;1.40;1.20;;;;;5.80;97322.00;;;;9974286;29;20237;-93
2020/12/04 01:22:58;;;;;;;1.80;1.50;;;;;5.80;97312.00;;;;9980202;29;20202;-93
2020/12/04 01:28:03;;;;;;;1.40;1.30;;;;;5.90;97307.00;;;;9982721;29;20210;-93
2020/12/04 01:33:08;;;;;;;1.77;1.40;;;;;5.90;97295.00;;;;9983479;29;20258;-92
2020/12/04 01:38:13;;;;;;;1.60;1.50;;;;;6.00;97286.00;;;;9989169;29;20233;-93
2020/12/04 01:43:20;;;;;;;1.80;1.70;;;;;6.00;97266.00;;;;9989850;29;20254;-92
2020/12/04 01:48:24;;;;;;;1.97;1.30;;;;;6.00;97264.00;;;;9981963;29;20298;-91
2020/12/04 01:53:56;;;;;;;1.87;1.20;;;;;6.10;97258.00;;;;10007296;29;20878;-90
2020/12/04 01:59:00;;;;;;;1.63;1.53;;;;;6.10;97227.00;;;;10015736;29;20254;-91
2020/12/04 02:04:08;;;;;;;1.33;1.23;;;;;6.10;97235.00;;;;10036954;29;20219;-92
2020/12/04 02:09:31;;;;;;;2.33;1.27;;;;;6.20;97233.00;;;;10001655;29;20206;-94
2020/12/04 02:14:39;;;;;;;1.30;1.20;;;;;6.20;97220.00;;;;10024860;29;20206;-91
2020/12/04 02:19:50;;;;;;;2.80;1.30;;;;;6.20;97216.00;;;;10014457;29;20305;-92
2020/12/04 02:25:27;;;;;;;1.67;1.40;;;;;6.30;97217.00;;;;10002423;29;20219;-92
2020/12/04 02:30:46;;;;;;;1.70;1.40;;;;;6.40;97216.00;;;;10056406;29;20210;-89
2020/12/04 02:36:12;;;;;;;1.40;1.10;;;;;6.40;97210.00;;;;10036594;29;20202;-91
2020/12/04 02:41:23;;;;;;;1.77;1.50;;;;;6.50;97195.00;;;;10056002;29;20236;-89
2020/12/04 02:46:52;;;;;;;1.20;0.97;;;;;6.60;97182.00;;;;10048974;29;20261;-90
2020/12/04 02:52:44;;;;;;;0.77;0.77;;;;;6.70;97188.00;;;;10041955;29;20202;-89
2020/12/04 02:58:03;;;;;;;0.90;0.77;;;;;6.80;97183.00;;;;10058209;29;20241;-90
2020/12/04 03:03:17;;;;;;;0.63;0.63;;;;;6.90;97168.00;;;;10030868;29;20194;-90
2020/12/04 03:08:27;;;;;;;2.00;1.13;;;;;6.90;97162.00;;;;10040795;29;20217;-91
2020/12/04 03:13:51;;;;;;;1.13;0.77;;;;;7.00;97150.00;;;;10057479;29;20198;-91
2020/12/04 03:19:26;;;;;;;1.07;0.87;;;;;7.10;97154.00;;;;10025796;29;20236;-88
2020/12/04 03:24:45;;;;;;;0.83;0.80;;;;;7.10;97139.00;;;;10014826;29;20320;-91
2020/12/04 03:36:34;;;;;;;1.03;0.93;;;;;7.30;97147.00;;;;10064171;29;20365;-91
2020/12/04 03:41:47;;;;;;;0.80;0.70;;;;;7.30;97136.00;;;;10040389;29;20220;-88
2020/12/04 03:47:11;;;;;;;0.93;0.50;;;;;7.20;97145.00;;;;10049511;29;20196;-89
2020/12/04 03:52:54;;;;;;;1.00;0.63;;;;;7.20;97147.00;;;;10018426;29;20221;-91
2020/12/04 03:58:03;;;;;;;1.77;0.90;;;;;7.30;97156.00;;;;10029515;29;20258;-91
2020/12/04 04:03:19;;;;;;;1.97;0.67;;;;;7.30;97131.00;;;;10021133;29;20209;-92
2020/12/04 04:08:37;;;;;;;2.30;0.90;;;;;7.40;97128.00;;;;10032559;29;20232;-91
2020/12/04 04:13:42;;;;;;;1.93;0.70;;;;;7.30;97125.00;;;;10035489;29;20198;-90
2020/12/04 04:18:59;;;;;;;2.13;0.80;;;;;7.30;97128.00;;;;10039373;29;20306;-90
2020/12/04 04:24:26;;;;;;;1.43;0.70;;;;;7.20;97127.00;;;;10013850;29;20206;-89
2020/12/04 04:29:44;;;;;;;0.60;0.43;;;;;7.30;97136.00;;;;10030305;29;20269;-90
2020/12/04 04:35:01;;;;;;;1.50;0.70;;;;;7.20;97154.00;;;;10064970;29;20285;-90
2020/12/04 04:40:19;;;;;;;0.83;0.57;;;;;7.20;97153.00;;;;10047236;29;20312;-91
2020/12/04 04:45:29;;;;;;;1.40;0.50;;;;;7.20;97160.00;;;;10001801;29;20274;-89
2020/12/04 04:50:46;;;;;;;0.70;0.53;;;;;7.20;97170.00;;;;10037725;29;20204;-90
2020/12/04 05:18:05;;;;;;;0.80;0.30;;;;;5.70;97207.00;;;;10028321;23;20766;-75
2020/12/04 05:23:08;;;;;;;0.20;0.20;;;;;5.80;97220.00;;;;10124016;29;20228;-76
2020/12/04 05:28:26;;;;;;;0.27;0.27;;;;;5.90;97232.00;;;;10129164;29;20294;-75
2020/12/04 05:33:28;;;;;;;0.30;0.30;;;;;5.80;97219.00;;;;10104210;29;20238;-76
2020/12/04 05:38:31;;;;;;;0.30;0.30;;;;;5.80;97239.00;;;;10113906;29;20239;-75
2020/12/04 05:43:35;;;;;;;1.50;0.30;;;;;5.80;97272.00;;;;10129514;29;20307;-80
2020/12/04 05:48:37;;;;;;;1.17;0.30;;;;;6.10;97288.00;;;;10122370;29;20702;-75
2020/12/04 05:53:39;;;;;;;2.20;0.40;;;;;6.20;97288.00;;;;10111364;29;20884;-75
2020/12/04 05:58:42;;;;;;;0.40;0.40;;;;;6.40;97318.00;;;;10115017;29;20859;-76
2020/12/04 06:03:50;;;;;;;0.90;0.40;;;;;6.40;97328.00;;;;10120145;29;20234;-75
2020/12/04 06:08:53;;;;;;;0.63;0.43;;;;;6.50;97330.00;;;;10123442;29;20287;-77
2020/12/04 06:13:59;;;;;;;2.23;0.53;;;;;6.50;97350.00;;;;10091162;29;20322;-75
2020/12/04 06:19:00;;;;;;;0.90;0.40;;;;;6.50;97360.00;;;;10125305;29;20330;-77
2020/12/04 06:24:08;;;;;;;2.07;0.50;;;;;6.60;97355.00;;;;10113330;23;20263;-75
2020/12/04 06:29:10;;;;;;;1.07;0.40;;;;;6.60;97370.00;;;;10126202;29;20269;-76
2020/12/04 06:34:21;;;;;;;1.23;0.50;;;;;6.50;97379.00;;;;10119738;29;20414;-75
2020/12/04 06:39:31;;;;;;;0.67;0.50;;;;;6.40;97386.00;;;;10144178;29;20255;-75
2020/12/04 06:44:33;;;;;;;1.03;0.50;;;;;6.40;97390.00;;;;10114582;29;20227;-78
2020/12/04 06:49:36;;;;;;;5.33;0.50;;;;;6.30;97408.00;;;;10138651;29;20211;-80
2020/12/04 06:54:40;;;;;;;0.57;0.53;;;;;6.20;97393.00;;;;10129562;29;20228;-78
2020/12/04 06:59:44;;;;;;;1.10;0.67;;;;;6.20;97404.00;;;;10108364;29;20233;-78
2020/12/04 07:04:54;;;;;;;0.60;0.50;;;;;6.30;97435.00;;;;10139129;29;20241;-76
2020/12/04 07:10:02;;;;;;;1.20;0.40;;;;;6.20;97429.00;;;;10128231;29;20234;-76
2020/12/04 07:15:04;;;;;;;0.57;0.40;;;;;6.00;97438.00;;;;10123313;29;20314;-76
2020/12/04 07:20:06;;;;;;;1.47;0.50;;;;;6.10;97459.00;;;;10113110;29;20322;-75
2020/12/04 07:25:09;;;;;;;2.50;0.40;;;;;6.10;97471.00;;;;10125305;29;20380;-75
2020/12/04 07:30:21;;;;;;;0.80;0.60;;;;;6.20;97497.00;;;;10111157;29;20744;-76
2020/12/04 07:35:26;;;;;;;1.90;0.70;;;;;6.20;97491.00;;;;10121599;29;20229;-77
2020/12/04 07:40:29;;;;;;;0.87;0.60;;;;;6.30;97526.00;;;;10116289;29;20602;-76
2020/12/04 07:45:31;;;;;;;1.00;0.60;;;;;6.30;97534.00;;;;10119706;29;20364;-76
2020/12/04 07:50:38;;;;;;;0.87;0.63;;;;;6.40;97552.00;;;;10114611;29;20258;-78
2020/12/04 07:55:49;;;;;;;0.57;0.50;;;;;6.40;97556.00;;;;10122496;29;20310;-76
2020/12/04 08:00:58;;;;;;;0.73;0.70;;;;;6.40;97571.00;;;;10137359;29;20225;-76
2020/12/04 08:06:09;;;;;;;0.80;0.80;;;;;6.40;97585.00;;;;10134471;29;20226;-77
2020/12/04 08:11:12;;;;;;;0.77;0.70;;;;;6.40;97583.00;;;;10112068;29;20722;-77
2020/12/04 08:16:16;;;;;;;0.50;0.50;;;;;6.40;97586.00;;;;10113780;29;20299;-77
2020/12/04 08:21:26;;;;;;;1.03;0.60;;;;;6.40;97580.00;;;;10119244;29;20588;-78
2020/12/04 08:26:30;;;;;;;2.00;0.60;;;;;6.40;97581.00;;;;10142108;29;20283;-77
2020/12/04 08:31:32;;;;;;;1.17;0.80;;;;;6.40;97593.00;;;;10102527;29;20226;-75
2020/12/04 08:36:38;;;;;;;0.60;0.60;;;;;6.40;97602.00;;;;10129153;29;20215;-77
2020/12/04 08:41:40;;;;;;;0.70;0.70;;;;;6.40;97617.00;;;;10114409;29;20235;-77
2020/12/04 08:46:42;;;;;;;0.90;0.70;;;;;6.40;97628.00;;;;10107527;29;20980;-78
2020/12/04 08:51:48;;;;;;;1.10;0.60;;;;;6.40;97632.00;;;;10140330;29;20784;-76
2020/12/04 08:56:55;;;;;;;0.50;0.50;;;;;6.50;97651.00;;;;10143275;29;20832;-78
2020/12/04 09:01:57;;;;;;;1.47;0.60;;;;;6.50;97659.00;;;;10122335;29;20582;-78
2020/12/04 09:07:00;;;;;;;1.23;0.73;;;;;6.50;97658.00;;;;10117403;29;20207;-77
2020/12/04 09:12:02;;;;;;;1.00;0.80;;;;;6.50;97665.00;;;;10115772;29;20295;-78
2020/12/04 09:17:05;;;;;;;1.20;0.90;;;;;6.50;97687.00;;;;10119597;29;20290;-77
2020/12/04 09:22:07;;;;;;;0.70;0.70;;;;;6.50;97705.00;;;;10111909;29;20235;-78
2020/12/04 09:27:09;;;;;;;2.40;0.63;;;;;6.60;97718.00;;;;10111737;29;20207;-78
2020/12/04 09:32:14;;;;;;;1.20;0.60;;;;;6.60;97725.00;;;;10131487;29;20227;-78
2020/12/04 09:37:25;;;;;;;1.23;0.60;;;;;6.60;97752.00;;;;10116192;29;20317;-77
2020/12/04 09:42:28;;;;;;;0.80;0.70;;;;;6.50;97762.00;;;;10125212;29;20219;-78
2020/12/04 09:47:32;;;;;;;1.27;0.80;;;;;6.50;97756.00;;;;10141409;29;20239;-77
2020/12/04 09:52:34;;;;;;;1.63;0.70;;;;;6.60;97773.00;;;;10132328;29;20774;-78
2020/12/04 09:57:36;;;;;;;0.73;0.70;;;;;6.80;97786.00;;;;10133838;29;20798;-77
2020/12/04 10:02:38;;;;;;;1.30;0.73;;;;;6.70;97792.00;;;;10119441;29;20318;-79
2020/12/04 10:07:40;;;;;;;1.47;1.00;;;;;7.40;97790.00;;;;10121588;29;20211;-77
2020/12/04 10:12:42;;;;;;;1.27;0.87;;;;;7.60;97799.00;;;;10122776;29;20219;-77
2020/12/04 10:17:45;;;;;;;0.90;0.90;;;;;7.90;97794.00;;;;10141327;29;20287;-76
2020/12/04 10:22:47;;;;;;;0.87;0.87;;;;;7.60;97804.00;;;;10098202;29;20234;-76
2020/12/04 10:27:49;;;;;;;1.77;1.33;;;;;7.50;97798.00;;;;10112451;29;20385;-77
2020/12/04 10:32:51;;;;;;;1.63;0.90;;;;;7.40;97804.00;;;;10127888;29;20219;-77
2020/12/04 10:37:53;;;;;;;0.90;0.80;;;;;7.10;97805.00;;;;10126308;29;20227;-78
2020/12/04 10:42:55;;;;;;;1.10;1.00;;;;;7.30;97792.00;;;;10122136;29;20255;-77
2020/12/04 10:47:57;;;;;;;2.30;1.23;;;;;7.40;97795.00;;;;10123736;29;20863;-77
2020/12/04 10:52:59;;;;;;;1.00;0.90;;;;;7.60;97773.00;;;;10137708;29;20285;-78
2020/12/04 10:58:01;;;;;;;2.53;1.60;;;;;8.00;97776.00;;;;10138439;29;20714;-78
2020/12/04 11:03:13;;;;;;;3.27;2.17;;;;;7.50;97787.00;;;;10116658;29;20255;-77
2020/12/04 11:08:16;;;;;;;4.13;1.70;;;;;7.60;97784.00;;;;10144658;29;20726;-78
2020/12/04 11:13:18;;;;;;;2.30;1.37;;;;;7.20;97787.00;;;;10142751;29;20938;-78
2020/12/04 11:18:20;;;;;;;1.23;1.13;;;;;7.30;97800.00;;;;10132623;29;20370;-78
2020/12/04 11:23:22;;;;;;;2.43;1.27;;;;;7.30;97805.00;;;;10131302;29;20254;-81
2020/12/04 11:28:24;;;;;;;2.40;1.50;;;;;7.90;97797.00;;;;10144570;29;20595;-77
2020/12/04 11:33:27;;;;;;;1.37;0.97;;;;;8.00;97807.00;;;;10129691;29;20315;-78
2020/12/04 11:38:29;;;;;;;0.80;0.80;;;;;8.00;97817.00;;;;10134030;29;20227;-76
2020/12/04 11:43:31;;;;;;;0.60;0.60;;;;;7.60;97840.00;;;;10123116;29;20254;-77
2020/12/04 11:48:34;;;;;;;2.03;0.80;;;;;7.90;97837.00;;;;10117448;29;20294;-76
2020/12/04 11:53:37;;;;;;;1.27;1.00;;;;;8.20;97837.00;;;;10108289;29;20246;-76
2020/12/04 11:58:39;;;;;;;2.00;0.80;;;;;8.10;97848.00;;;;10129297;29;20322;-76
2020/12/04 12:03:42;;;;;;;2.27;0.90;;;;;8.00;97844.00;;;;10140835;29;20258;-77
2020/12/04 12:08:44;;;;;;;0.80;0.70;;;;;8.10;97862.00;;;;10125221;29;20207;-81
2020/12/04 12:13:46;;;;;;;0.50;0.43;;;;;8.70;97862.00;;;;10129186;29;20219;-73
2020/12/04 12:18:49;;;;;;;5.43;0.83;;;;;8.30;97843.00;;;;10093545;29;21046;-74
2020/12/04 12:23:51;;;;;;;1.10;0.70;;;;;8.70;97856.00;;;;10093871;29;20253;-74
2020/12/04 12:28:53;;;;;;;1.10;0.70;;;;;8.30;97849.00;;;;10095422;29;21237;-74
2020/12/04 12:33:55;;;;;;;1.50;0.70;;;;;8.70;97851.00;;;;10093315;29;21964;-75
2020/12/04 12:38:57;;;;;;;2.70;0.80;;;;;8.90;97858.00;;;;10093905;29;20761;-74
2020/12/04 12:44:00;;;;;;;1.93;0.70;;;;;8.90;97850.00;;;;10107881;29;20373;-76
2020/12/04 12:49:02;;;;;;;1.63;0.90;;;;;8.90;97848.00;;;;10124094;29;20203;-75
2020/12/04 12:54:04;;;;;;;1.10;0.70;;;;;8.80;97857.00;;;;10116986;29;20251;-76
2020/12/04 12:59:07;;;;;;;1.27;0.50;;;;;8.80;97853.00;;;;10106328;29;20230;-84
2020/12/04 13:04:09;;;;;;;3.43;0.97;;;;;8.70;97863.00;;;;10107207;29;20219;-78
2020/12/04 13:09:12;;;;;;;2.93;0.70;;;;;8.70;97864.00;;;;10119149;29;20214;-73
2020/12/04 13:14:14;;;;;;;2.47;0.80;;;;;8.70;97869.00;;;;10108980;29;20238;-77
2020/12/04 13:19:20;;;;;;;1.77;1.00;;;;;8.60;97882.00;;;;10128002;29;20261;-77
2020/12/04 13:24:34;;;;;;;2.97;0.90;;;;;8.60;97898.00;;;;10112048;29;20235;-76
2020/12/04 13:29:37;;;;;;;2.43;0.87;;;;;8.60;97887.00;;;;10113195;29;20199;-76
2020/12/04 13:34:40;;;;;;;0.80;0.60;;;;;8.30;97903.00;;;;10138389;29;20288;-78
2020/12/04 13:39:42;;;;;;;1.43;0.70;;;;;8.30;97922.00;;;;10111262;29;20267;-77
2020/12/04 13:44:44;;;;;;;2.30;0.80;;;;;8.20;97890.00;;;;10112129;29;20310;-83
2020/12/04 13:49:46;;;;;;;2.67;0.80;;;;;8.10;97900.00;;;;10130394;29;20290;-75
2020/12/04 13:54:50;;;;;;;1.20;0.70;;;;;7.90;97911.00;;;;10109782;29;20271;-79
2020/12/04 13:59:52;;;;;;;2.63;1.13;;;;;7.60;97915.00;;;;10131618;29;20238;-85
2020/12/04 14:04:54;;;;;;;2.93;0.70;;;;;7.50;97914.00;;;;10130713;29;21251;-74
2020/12/04 14:09:56;;;;;;;3.87;1.00;;;;;7.30;97928.00;;;;10102713;29;20283;-76
2020/12/04 14:14:59;;;;;;;2.63;0.90;;;;;7.20;97932.00;;;;10129859;29;20311;-89
2020/12/04 14:20:01;;;;;;;2.00;1.00;;;;;7.00;97944.00;;;;10137793;29;20263;-82
2020/12/04 14:25:04;;;;;;;0.53;0.53;;;;;6.80;97955.00;;;;10149627;29;20251;-86
2020/12/04 14:30:06;;;;;;;0.80;0.67;;;;;6.70;97970.00;;;;10150480;29;20207;-80
2020/12/04 14:35:09;;;;;;;2.47;1.00;;;;;6.70;97973.00;;;;10141285;29;20255;-84
2020/12/04 14:40:30;;;;;;;2.30;1.23;;;;;6.50;97998.00;;;;10125923;29;20223;-83
2020/12/04 14:45:32;;;;;;;3.23;0.70;;;;;6.50;98004.00;;;;10116920;29;20272;-80
2020/12/04 14:50:34;;;;;;;1.33;0.70;;;;;6.50;98018.00;;;;10142686;29;20255;-80
2020/12/04 14:55:36;;;;;;;3.73;0.87;;;;;6.30;98033.00;;;;10108453;29;20311;-77
2020/12/04 15:00:38;;;;;;;1.43;0.80;;;;;6.20;98035.00;;;;10132609;29;20263;-77
2020/12/04 15:05:41;;;;;;;3.03;0.90;;;;;6.10;98048.00;;;;10132172;29;20203;-83
2020/12/04 15:10:43;;;;;;;2.87;0.97;;;;;6.00;98051.00;;;;10158714;29;20202;-82
2020/12/04 15:15:46;;;;;;;2.87;0.70;;;;;6.00;98065.00;;;;10132103;29;20199;-77
2020/12/04 15:20:49;;;;;;;2.77;0.83;;;;;6.00;98070.00;;;;10156118;29;20279;-80
2020/12/04 15:25:51;;;;;;;1.33;0.80;;;;;5.90;98079.00;;;;10156570;29;20292;-79
2020/12/04 15:30:53;;;;;;;0.97;0.70;;;;;5.70;98092.00;;;;10129418;29;21012;-78
2020/12/04 15:35:56;;;;;;;1.17;0.80;;;;;5.60;98088.00;;;;10125075;29;20255;-80
2020/12/04 15:40:58;;;;;;;2.03;0.90;;;;;5.60;98107.00;;;;10152202;29;20313;-79
2020/12/04 15:46:00;;;;;;;5.33;1.00;;;;;5.40;98103.00;;;;10161250;29;20274;-77
2020/12/04 15:51:02;;;;;;;1.40;0.70;;;;;5.30;98107.00;;;;10146649;29;20672;-79
2020/12/04 15:56:05;;;;;;;1.80;0.77;;;;;5.30;98117.00;;;;10160814;29;20203;-78
2020/12/04 16:01:07;;;;;;;4.43;0.93;;;;;5.20;98129.00;;;;10175842;29;20537;-76
2020/12/04 16:06:09;;;;;;;1.50;1.03;;;;;5.20;98134.00;;;;10127275;29;20660;-82
2020/12/04 16:11:10;;;;;;;4.10;1.00;;;;;5.10;98145.00;;;;10142315;29;20581;-78
2020/12/04 16:16:12;;;;;;;3.87;1.10;;;;;5.00;98159.00;;;;10158280;29;20221;-82
2020/12/04 16:21:15;;;;;;;2.53;0.97;;;;;4.90;98176.00;;;;10160617;29;20325;-77
2020/12/04 16:26:17;;;;;;;1.63;0.80;;;;;4.80;98178.00;;;;10131258;29;20210;-79
2020/12/04 16:31:21;;;;;;;1.87;0.83;;;;;4.80;98175.00;;;;10148510;29;20234;-77
2020/12/04 16:36:24;;;;;;;3.50;0.93;;;;;4.70;98187.00;;;;10138133;29;20730;-75
2020/12/04 16:41:27;;;;;;;3.47;0.90;;;;;4.70;98192.00;;;;10156742;29;20748;-75
2020/12/04 16:46:29;;;;;;;2.13;1.23;;;;;4.60;98195.00;;;;10125662;29;20755;-78
2020/12/04 16:51:32;;;;;;;3.03;1.20;;;;;4.60;98205.00;;;;10136860;29;20319;-75
2020/12/04 16:56:36;;;;;;;2.97;1.20;;;;;4.50;98215.00;;;;10131416;29;20222;-74
2020/12/04 17:01:38;;;;;;;4.03;2.10;;;;;4.40;98219.00;;;;10133342;29;20353;-74
2020/12/04 17:06:40;;;;;;;5.17;1.47;;;;;4.30;98229.00;;;;10146608;29;20996;-75
2020/12/04 17:11:51;;;;;;;2.33;1.13;;;;;4.30;98228.00;;;;10147930;29;20573;-87
2020/12/04 17:16:53;;;;;;;4.47;1.30;;;;;4.20;98232.00;;;;10143689;29;20297;-75
2020/12/04 17:21:56;;;;;;;6.13;2.43;;;;;4.20;98242.00;;;;10149161;29;20269;-76
2020/12/04 17:26:58;;;;;;;5.97;2.73;;;;;4.20;98246.00;;;;10155559;29;20621;-76
2020/12/04 17:32:00;;;;;;;8.23;3.20;;;;;4.20;98243.00;;;;10081828;29;20687;-76
2020/12/04 17:37:02;;;;;;;5.27;1.80;;;;;4.20;98249.00;;;;10123237;29;20211;-76
2020/12/04 17:42:04;;;;;;;4.33;1.53;;;;;4.10;98235.00;;;;10114769;29;20550;-77
2020/12/04 17:47:07;;;;;;;3.97;1.53;;;;;4.10;98246.00;;;;10147407;29;20895;-77
2020/12/04 17:52:10;;;;;;;7.30;2.27;;;;;4.00;98258.00;;;;10152231;29;20919;-78
2020/12/04 17:57:13;;;;;;;2.07;1.40;;;;;3.90;98256.00;;;;10123783;29;20620;-76
2020/12/04 18:02:15;;;;;;;7.47;1.97;;;;;3.90;98268.00;;;;10123857;29;20262;-77
2020/12/04 18:07:17;;;;;;;6.80;1.70;;;;;3.80;98262.00;;;;10130117;29;20554;-76
2020/12/04 18:12:19;;;;;;;2.90;2.00;;;;;3.80;98255.00;;;;10159712;29;20230;-75
2020/12/04 18:17:22;;;;;;;5.03;2.07;;;;;3.70;98267.00;;;;10168855;29;20293;-75
2020/12/04 18:22:24;;;;;;;9.73;3.67;;;;;3.70;98261.00;;;;10142298;29;20258;-75
2020/12/04 18:27:26;;;;;;;7.80;3.80;;;;;3.60;98268.00;;;;10144201;29;20203;-75
2020/12/04 18:32:29;;;;;;;4.87;2.77;;;;;3.50;98279.00;;;;10120328;29;20227;-76
2020/12/04 18:37:31;;;;;;;12.97;4.43;;;;;3.40;98271.00;;;;10158479;29;20211;-76
2020/12/04 18:42:33;;;;;;;10.57;6.40;;;;;3.40;98284.00;;;;10145094;29;20326;-77
2020/12/04 18:47:35;;;;;;;8.53;4.60;;;;;3.30;98285.00;;;;10125140;29;20289;-78
2020/12/04 18:52:38;;;;;;;7.00;4.20;;;;;3.20;98291.00;;;;10159682;29;20639;-76
2020/12/04 18:57:41;;;;;;;6.77;2.97;;;;;3.20;98281.00;;;;10138493;29;20220;-76
2020/12/04 19:02:43;;;;;;;8.83;3.33;;;;;3.10;98292.00;;;;10161759;29;20232;-78
2020/12/04 19:07:45;;;;;;;6.87;2.83;;;;;3.00;98297.00;;;;10158357;29;20298;-76
2020/12/04 19:12:47;;;;;;;5.33;3.93;;;;;3.00;98312.00;;;;10107142;29;20807;-79
2020/12/04 19:17:49;;;;;;;6.13;2.77;;;;;2.90;98313.00;;;;10134326;29;20233;-77
2020/12/04 19:22:51;;;;;;;14.50;5.03;;;;;2.90;98319.00;;;;10157460;29;20235;-77
2020/12/04 19:27:53;;;;;;;9.73;3.13;;;;;2.90;98315.00;;;;10165688;29;20294;-76
2020/12/04 19:32:55;;;;;;;10.07;3.27;;;;;2.90;98338.00;;;;10167651;29;20231;-76
2020/12/04 19:37:57;;;;;;;8.37;4.73;;;;;2.80;98335.00;;;;10137306;29;20313;-77
2020/12/04 19:43:00;;;;;;;9.87;5.03;;;;;2.80;98338.00;;;;10157301;29;20222;-77
2020/12/04 19:48:03;;;;;;;12.30;6.43;;;;;2.80;98335.00;;;;10142973;29;20199;-75
2020/12/04 19:53:05;;;;;;;11.10;4.40;;;;;2.80;98343.00;;;;10148603;29;20317;-77
2020/12/04 19:58:07;;;;;;;6.53;3.17;;;;;2.80;98346.00;;;;10137993;29;20230;-77
2020/12/04 20:03:09;;;;;;;7.73;2.60;;;;;2.90;98350.00;;;;10120241;29;20243;-76
2020/12/04 20:08:12;;;;;;;5.17;2.50;;;;;2.80;98351.00;;;;10114196;29;20295;-77
2020/12/04 20:13:15;;;;;;;5.80;2.10;;;;;2.90;98359.00;;;;10110965;29;20246;-78
2020/12/04 20:18:18;;;;;;;6.83;2.63;;;;;2.90;98352.00;;;;10130873;29;20694;-77
2020/12/04 20:23:23;;;;;;;10.07;5.23;;;;;2.90;98363.00;;;;10118867;29;20321;-78
2020/12/04 20:28:26;;;;;;;7.73;4.23;;;;;2.80;98355.00;;;;10142360;29;20205;-79
2020/12/04 20:33:30;;;;;;;6.63;3.37;;;;;2.60;98361.00;;;;10132053;29;20561;-77
2020/12/04 20:38:32;;;;;;;11.60;3.90;;;;;2.40;98358.00;;;;10120173;29;20780;-78
2020/12/04 20:43:34;;;;;;;5.07;2.90;;;;;2.20;98361.00;;;;10085215;29;20220;-71
2020/12/04 20:48:37;;;;;;;8.50;3.37;;;;;2.00;98357.00;;;;10139191;29;20215;-71
2020/12/04 20:53:40;;;;;;;8.17;3.63;;;;;1.80;98366.00;;;;10127534;29;20574;-71
2020/12/04 20:58:42;;;;;;;9.47;3.30;;;;;1.60;98362.00;;;;10139101;29;20367;-71
2020/12/04 21:03:44;;;;;;;6.30;3.23;;;;;1.50;98355.00;;;;10138489;29;20229;-70
2020/12/04 21:08:46;;;;;;;6.37;3.40;;;;;1.40;98373.00;;;;10142670;29;20294;-71
2020/12/04 21:13:49;;;;;;;6.27;3.40;;;;;1.40;98386.00;;;;10138406;29;20776;-71
2020/12/04 21:18:51;;;;;;;13.40;6.20;;;;;1.40;98392.00;;;;10136965;29;20262;-72
2020/12/04 21:23:53;;;;;;;10.13;5.67;;;;;1.40;98394.00;;;;10142453;29;20258;-72
2020/12/04 21:28:56;;;;;;;8.07;4.17;;;;;1.40;98409.00;;;;10118689;29;20203;-71
2020/12/04 21:33:58;;;;;;;7.60;3.47;;;;;1.30;98409.00;;;;10138663;29;20255;-71
2020/12/04 21:39:00;;;;;;;10.40;3.93;;;;;1.20;98417.00;;;;10140563;29;20271;-71
2020/12/04 21:44:03;;;;;;;15.77;7.77;;;;;1.20;98430.00;;;;10129678;29;20221;-74
2020/12/04 21:49:05;;;;;;;8.90;4.23;;;;;1.10;98437.00;;;;10134672;29;20209;-73
2020/12/04 21:54:08;;;;;;;12.37;4.20;;;;;1.00;98445.00;;;;10132187;29;20215;-71
2020/12/04 21:59:14;;;;;;;7.90;3.63;;;;;0.90;98444.00;;;;10114639;29;20415;-71
2020/12/04 22:04:16;;;;;;;8.30;4.20;;;;;0.80;98452.00;;;;10127796;29;20261;-72
2020/12/04 22:09:18;;;;;;;12.40;4.67;;;;;0.70;98452.00;;;;10096807;29;20679;-72
2020/12/04 22:14:21;;;;;;;10.30;4.63;;;;;0.70;98458.00;;;;10135482;29;20233;-71
2020/12/04 22:19:23;;;;;;;14.47;4.87;;;;;0.70;98464.00;;;;10129956;29;20256;-71
2020/12/04 22:24:25;;;;;;;7.13;4.40;;;;;0.80;98453.00;;;;10129955;29;20242;-71
2020/12/04 22:29:27;;;;;;;8.63;4.67;;;;;0.80;98453.00;;;;10130620;29;20208;-72
2020/12/04 22:34:29;;;;;;;10.23;4.47;;;;;0.90;98460.00;;;;10137946;29;20687;-82
2020/12/04 22:39:32;;;;;;;7.70;4.00;;;;;0.90;98458.00;;;;10122338;29;20235;-72
2020/12/04 22:44:36;;;;;;;10.80;4.00;;;;;0.80;98458.00;;;;10136990;29;20251;-72
2020/12/04 22:49:38;;;;;;;8.83;3.80;;;;;0.90;98467.00;;;;10137140;29;20200;-71
2020/12/04 22:54:40;;;;;;;8.67;4.67;;;;;0.90;98477.00;;;;10138079;29;20254;-71
2020/12/04 22:59:42;;;;;;;9.37;4.13;;;;;0.80;98474.00;;;;10149498;29;20723;-71
2020/12/04 23:04:44;;;;;;;4.50;3.73;;;;;0.80;98491.00;;;;10143934;29;20305;-70
2020/12/04 23:09:47;;;;;;;8.00;4.80;;;;;0.70;98491.00;;;;10133958;29;20274;-71
2020/12/04 23:14:49;;;;;;;7.00;4.27;;;;;0.70;98494.00;;;;10134143;29;20306;-76
2020/12/04 23:19:51;;;;;;;7.43;4.90;;;;;0.70;98497.00;;;;10132840;29;20323;-71
2020/12/04 23:24:53;;;;;;;5.70;4.27;;;;;0.70;98502.00;;;;10141740;29;20306;-71
2020/12/04 23:29:55;;;;;;;10.97;4.57;;;;;0.50;98484.00;;;;10125811;29;20210;-74
2020/12/04 23:34:57;;;;;;;21.80;4.77;;;;;0.40;98489.00;;;;10127199;29;20571;-71
2020/12/04 23:40:00;;;;;;;7.17;5.17;;;;;0.30;98495.00;;;;10118221;29;20236;-79
2020/12/04 23:45:05;;;;;;;14.03;4.53;;;;;0.30;98492.00;;;;10135663;29;20242;-70
2020/12/04 23:50:08;;;;;;;7.90;5.47;;;;;0.30;98481.00;;;;10117538;29;20214;-71
2020/12/04 23:55:10;;;;;;;10.03;5.30;;;;;0.30;98484.00;;;;10120212;29;20242;-70
